Terminal Aerodrome Forecast
Issued by NWS

Home | Current Version | Previous Version | Text Only | Print | Product List | Glossary On
Versions: 1 2 3 4 5 6 7 8 9 10 11 12 13 14 15 16 17 18
000
FTUS44 KLZK 031300 AAA
TAFPBF
TAF AMD
KPBF 031359Z 0314/0412 18005KT 2SM BR OVC005
      TEMPO 0314/0316 1/2SM FG VV003
     FM031700 20005KT 4SM BR VCSH OVC005
     FM032000 21007KT P6SM VCSH SCT008 OVC020
     FM040000 22005KT 4SM -RA BR BKN005 OVC015=

USA.gov is the U.S. government's official web portal to all federal, state and local government web resources and services.